Fortaleza Dos Nogueiras, Brazil
Current Conditions -  °F | °C
As of 6:00 AM on Monday 24 Nov 2014 (Local Time) from SBIZ Reporting Station
Few Clouds Few Clouds  
Wind Chill: 77°   Ceiling: Unl
Heat Index: 79°   Visibility: 6mi
Dew Point: 68°   Wind: 7mph
Humidity: 74%   Direction: 90°E
Pressure: 29.85"   Gusts: NA
Location:  6.9°S, 46.15°W
Report Text: SBIZ 240900Z 09006KT 9999 FEW030 25/20 Q1011
Loading
Personal Weather Stations






























Interactive Weather Map New forecast layout! Learn more

10-Day Weather Forecast

Advertisements
Track Severe Weather on mobile